sensor_id;sensor_type;location;lat;lon;timestamp;P1;durP1;ratioP1;P2;durP2;ratioP2
64242;SDS011;50573;51.512;5.386;2023-06-22T00:07:02;9.70;;;5.40;;
64242;SDS011;50573;51.512;5.386;2023-06-22T00:17:05;9.75;;;5.38;;
64242;SDS011;50573;51.512;5.386;2023-06-22T00:27:10;14.15;;;6.00;;
64242;SDS011;50573;51.512;5.386;2023-06-22T00:37:13;15.50;;;6.55;;
64242;SDS011;50573;51.512;5.386;2023-06-22T00:47:17;10.43;;;7.25;;
64242;SDS011;50573;51.512;5.386;2023-06-22T00:57:21;10.48;;;8.48;;
64242;SDS011;50573;51.512;5.386;2023-06-22T01:07:31;13.93;;;10.32;;
64242;SDS011;50573;51.512;5.386;2023-06-22T01:17:40;13.23;;;10.95;;
64242;SDS011;50573;51.512;5.386;2023-06-22T01:27:50;15.15;;;12.45;;
64242;SDS011;50573;51.512;5.386;2023-06-22T01:38:04;15.38;;;12.13;;
64242;SDS011;50573;51.512;5.386;2023-06-22T01:48:07;16.38;;;13.00;;
64242;SDS011;50573;51.512;5.386;2023-06-22T01:58:12;15.60;;;13.30;;
64242;SDS011;50573;51.512;5.386;2023-06-22T02:08:15;18.27;;;13.20;;
64242;SDS011;50573;51.512;5.386;2023-06-22T02:18:23;16.35;;;14.00;;
64242;SDS011;50573;51.512;5.386;2023-06-22T02:38:30;22.52;;;16.10;;
64242;SDS011;50573;51.512;5.386;2023-06-22T02:48:36;17.95;;;15.15;;
64242;SDS011;50573;51.512;5.386;2023-06-22T02:58:40;22.92;;;17.05;;
64242;SDS011;50573;51.512;5.386;2023-06-22T03:08:45;25.65;;;16.52;;
64242;SDS011;50573;51.512;5.386;2023-06-22T03:18:50;23.25;;;18.77;;
64242;SDS011;50573;51.512;5.386;2023-06-22T03:28:54;26.73;;;19.13;;
64242;SDS011;50573;51.512;5.386;2023-06-22T03:38:59;23.27;;;19.25;;
64242;SDS011;50573;51.512;5.386;2023-06-22T03:49:03;25.08;;;20.27;;
64242;SDS011;50573;51.512;5.386;2023-06-22T03:59:07;28.95;;;21.05;;
64242;SDS011;50573;51.512;5.386;2023-06-22T04:09:11;26.80;;;19.95;;
64242;SDS011;50573;51.512;5.386;2023-06-22T04:19:15;25.52;;;20.73;;
64242;SDS011;50573;51.512;5.386;2023-06-22T04:29:19;25.10;;;20.30;;
64242;SDS011;50573;51.512;5.386;2023-06-22T04:39:23;27.80;;;20.10;;
64242;SDS011;50573;51.512;5.386;2023-06-22T04:49:28;24.30;;;19.58;;
64242;SDS011;50573;51.512;5.386;2023-06-22T04:59:36;24.50;;;19.25;;
64242;SDS011;50573;51.512;5.386;2023-06-22T05:09:40;22.10;;;18.33;;
64242;SDS011;50573;51.512;5.386;2023-06-22T05:19:45;23.00;;;20.35;;
64242;SDS011;50573;51.512;5.386;2023-06-22T05:29:53;26.58;;;21.33;;
64242;SDS011;50573;51.512;5.386;2023-06-22T05:39:58;27.77;;;22.83;;
64242;SDS011;50573;51.512;5.386;2023-06-22T05:50:01;32.47;;;24.85;;
64242;SDS011;50573;51.512;5.386;2023-06-22T06:00:11;27.80;;;23.40;;
64242;SDS011;50573;51.512;5.386;2023-06-22T06:10:16;31.60;;;23.73;;
64242;SDS011;50573;51.512;5.386;2023-06-22T06:20:27;29.43;;;25.67;;
64242;SDS011;50573;51.512;5.386;2023-06-22T06:30:32;33.72;;;24.98;;
64242;SDS011;50573;51.512;5.386;2023-06-22T06:40:43;30.08;;;24.20;;
64242;SDS011;50573;51.512;5.386;2023-06-22T06:50:49;29.42;;;23.27;;
64242;SDS011;50573;51.512;5.386;2023-06-22T07:11:08;27.27;;;22.13;;
64242;SDS011;50573;51.512;5.386;2023-06-22T07:31:21;28.67;;;22.83;;
64242;SDS011;50573;51.512;5.386;2023-06-22T07:41:46;32.95;;;28.42;;
64242;SDS011;50573;51.512;5.386;2023-06-22T07:51:53;36.67;;;29.83;;
64242;SDS011;50573;51.512;5.386;2023-06-22T08:01:58;37.22;;;31.98;;
64242;SDS011;50573;51.512;5.386;2023-06-22T08:12:01;42.72;;;33.83;;
64242;SDS011;50573;51.512;5.386;2023-06-22T08:22:16;35.60;;;28.42;;
64242;SDS011;50573;51.512;5.386;2023-06-22T08:32:20;29.08;;;26.08;;
64242;SDS011;50573;51.512;5.386;2023-06-22T08:42:32;29.67;;;26.05;;
64242;SDS011;50573;51.512;5.386;2023-06-22T08:52:38;27.60;;;24.73;;
64242;SDS011;50573;51.512;5.386;2023-06-22T09:02:45;25.38;;;22.65;;
64242;SDS011;50573;51.512;5.386;2023-06-22T09:12:50;23.65;;;21.15;;
64242;SDS011;50573;51.512;5.386;2023-06-22T09:22:56;24.25;;;18.73;;
64242;SDS011;50573;51.512;5.386;2023-06-22T09:33:01;20.80;;;16.58;;
64242;SDS011;50573;51.512;5.386;2023-06-22T09:43:10;19.02;;;15.68;;
64242;SDS011;50573;51.512;5.386;2023-06-22T09:53:24;17.80;;;15.32;;
64242;SDS011;50573;51.512;5.386;2023-06-22T10:03:42;17.27;;;15.13;;
64242;SDS011;50573;51.512;5.386;2023-06-22T10:13:45;18.88;;;14.70;;
64242;SDS011;50573;51.512;5.386;2023-06-22T10:23:53;19.80;;;16.08;;
64242;SDS011;50573;51.512;5.386;2023-06-22T10:33:57;19.48;;;15.50;;
64242;SDS011;50573;51.512;5.386;2023-06-22T10:44:06;19.35;;;16.83;;
64242;SDS011;50573;51.512;5.386;2023-06-22T11:04:43;29.08;;;23.63;;
64242;SDS011;50573;51.512;5.386;2023-06-22T11:14:47;33.30;;;26.15;;
64242;SDS011;50573;51.512;5.386;2023-06-22T11:24:53;38.55;;;30.73;;
64242;SDS011;50573;51.512;5.386;2023-06-22T11:34:56;43.55;;;33.72;;
64242;SDS011;50573;51.512;5.386;2023-06-22T11:45:00;54.30;;;41.77;;
64242;SDS011;50573;51.512;5.386;2023-06-22T11:55:06;54.67;;;44.33;;
64242;SDS011;50573;51.512;5.386;2023-06-22T12:05:12;79.85;;;59.25;;
64242;SDS011;50573;51.512;5.386;2023-06-22T12:15:15;67.28;;;55.25;;
64242;SDS011;50573;51.512;5.386;2023-06-22T12:25:24;78.32;;;59.78;;
64242;SDS011;50573;51.512;5.386;2023-06-22T12:35:29;60.53;;;51.75;;
64242;SDS011;50573;51.512;5.386;2023-06-22T12:45:48;59.22;;;47.88;;
64242;SDS011;50573;51.512;5.386;2023-06-22T12:55:51;53.83;;;43.00;;
64242;SDS011;50573;51.512;5.386;2023-06-22T13:05:56;66.03;;;54.63;;
64242;SDS011;50573;51.512;5.386;2023-06-22T13:16:03;58.53;;;48.92;;
64242;SDS011;50573;51.512;5.386;2023-06-22T13:36:30;52.05;;;42.75;;
64242;SDS011;50573;51.512;5.386;2023-06-22T13:46:35;51.53;;;41.10;;
64242;SDS011;50573;51.512;5.386;2023-06-22T13:56:39;37.70;;;32.72;;
64242;SDS011;50573;51.512;5.386;2023-06-22T14:06:47;33.33;;;29.40;;
64242;SDS011;50573;51.512;5.386;2023-06-22T14:16:53;39.08;;;33.15;;
64242;SDS011;50573;51.512;5.386;2023-06-22T14:27:02;36.92;;;32.40;;
64242;SDS011;50573;51.512;5.386;2023-06-22T14:37:16;43.40;;;38.85;;
64242;SDS011;50573;51.512;5.386;2023-06-22T14:47:20;53.47;;;45.08;;
64242;SDS011;50573;51.512;5.386;2023-06-22T14:57:25;57.75;;;47.83;;
64242;SDS011;50573;51.512;5.386;2023-06-22T15:07:37;52.75;;;44.60;;
64242;SDS011;50573;51.512;5.386;2023-06-22T15:17:41;47.25;;;41.17;;
64242;SDS011;50573;51.512;5.386;2023-06-22T15:27:56;54.00;;;43.45;;
64242;SDS011;50573;51.512;5.386;2023-06-22T15:38:03;61.67;;;49.72;;
64242;SDS011;50573;51.512;5.386;2023-06-22T15:48:08;59.35;;;49.53;;
64242;SDS011;50573;51.512;5.386;2023-06-22T15:58:16;77.22;;;60.10;;
64242;SDS011;50573;51.512;5.386;2023-06-22T16:08:29;104.43;;;74.60;;
64242;SDS011;50573;51.512;5.386;2023-06-22T16:18:35;101.78;;;74.20;;
64242;SDS011;50573;51.512;5.386;2023-06-22T16:28:45;110.40;;;79.35;;
64242;SDS011;50573;51.512;5.386;2023-06-22T16:38:52;138.82;;;88.88;;
64242;SDS011;50573;51.512;5.386;2023-06-22T16:48:59;139.75;;;90.07;;
64242;SDS011;50573;51.512;5.386;2023-06-22T16:59:04;129.38;;;87.82;;
64242;SDS011;50573;51.512;5.386;2023-06-22T17:09:16;131.93;;;88.20;;
64242;SDS011;50573;51.512;5.386;2023-06-22T17:19:27;83.00;;;66.38;;
64242;SDS011;50573;51.512;5.386;2023-06-22T17:29:32;68.95;;;54.33;;
64242;SDS011;50573;51.512;5.386;2023-06-22T17:39:41;55.47;;;42.92;;
64242;SDS011;50573;51.512;5.386;2023-06-22T17:50:04;57.40;;;43.45;;
64242;SDS011;50573;51.512;5.386;2023-06-22T18:00:08;50.10;;;41.40;;
64242;SDS011;50573;51.512;5.386;2023-06-22T18:10:14;53.80;;;41.30;;
64242;SDS011;50573;51.512;5.386;2023-06-22T18:20:17;52.90;;;41.55;;
64242;SDS011;50573;51.512;5.386;2023-06-22T18:30:23;54.58;;;41.63;;
64242;SDS011;50573;51.512;5.386;2023-06-22T18:40:27;56.13;;;43.80;;
64242;SDS011;50573;51.512;5.386;2023-06-22T18:50:41;63.88;;;44.25;;
64242;SDS011;50573;51.512;5.386;2023-06-22T19:00:46;52.83;;;41.35;;
64242;SDS011;50573;51.512;5.386;2023-06-22T19:10:55;54.70;;;39.28;;
64242;SDS011;50573;51.512;5.386;2023-06-22T19:21:22;49.08;;;37.20;;
64242;SDS011;50573;51.512;5.386;2023-06-22T19:31:27;67.32;;;48.53;;
64242;SDS011;50573;51.512;5.386;2023-06-22T19:41:30;65.53;;;42.78;;
64242;SDS011;50573;51.512;5.386;2023-06-22T19:51:36;50.10;;;41.13;;
64242;SDS011;50573;51.512;5.386;2023-06-22T20:01:39;58.08;;;43.17;;
64242;SDS011;50573;51.512;5.386;2023-06-22T20:11:44;54.30;;;41.40;;
64242;SDS011;50573;51.512;5.386;2023-06-22T20:21:47;61.75;;;45.63;;
64242;SDS011;50573;51.512;5.386;2023-06-22T20:32:02;59.00;;;43.88;;
64242;SDS011;50573;51.512;5.386;2023-06-22T20:42:06;59.42;;;43.55;;
64242;SDS011;50573;51.512;5.386;2023-06-22T20:52:13;65.97;;;48.70;;
64242;SDS011;50573;51.512;5.386;2023-06-22T21:02:19;68.63;;;48.67;;
64242;SDS011;50573;51.512;5.386;2023-06-22T21:12:23;52.70;;;42.38;;
64242;SDS011;50573;51.512;5.386;2023-06-22T21:32:32;45.55;;;36.17;;
64242;SDS011;50573;51.512;5.386;2023-06-22T21:42:36;47.65;;;36.03;;
64242;SDS011;50573;51.512;5.386;2023-06-22T21:52:40;40.55;;;31.27;;
64242;SDS011;50573;51.512;5.386;2023-06-22T22:12:47;24.45;;;20.13;;
64242;SDS011;50573;51.512;5.386;2023-06-22T22:22:51;25.65;;;19.88;;
64242;SDS011;50573;51.512;5.386;2023-06-22T22:32:56;26.55;;;16.92;;
64242;SDS011;50573;51.512;5.386;2023-06-22T22:43:00;26.33;;;15.68;;
64242;SDS011;50573;51.512;5.386;2023-06-22T22:53:04;18.53;;;14.53;;
64242;SDS011;50573;51.512;5.386;2023-06-22T23:03:09;22.17;;;15.75;;
64242;SDS011;50573;51.512;5.386;2023-06-22T23:13:14;25.25;;;17.10;;
64242;SDS011;50573;51.512;5.386;2023-06-22T23:23:17;20.13;;;15.63;;
64242;SDS011;50573;51.512;5.386;2023-06-22T23:33:21;23.05;;;15.65;;
64242;SDS011;50573;51.512;5.386;2023-06-22T23:43:26;25.90;;;15.77;;
64242;SDS011;50573;51.512;5.386;2023-06-22T23:53:30;26.20;;;16.55;;
